sensor_id;sensor_type;location;lat;lon;timestamp;P1;durP1;ratioP1;P2;durP2;ratioP2
11665;SDS011;5889;51.350;6.708;2022-11-15T00:02:00;10.90;;;7.47;;
11665;SDS011;5889;51.350;6.708;2022-11-15T00:04:31;12.73;;;8.27;;
11665;SDS011;5889;51.350;6.708;2022-11-15T00:06:57;17.10;;;8.87;;
11665;SDS011;5889;51.350;6.708;2022-11-15T00:09:24;12.40;;;8.80;;
11665;SDS011;5889;51.350;6.708;2022-11-15T00:11:51;15.17;;;9.33;;
11665;SDS011;5889;51.350;6.708;2022-11-15T00:14:18;14.27;;;9.53;;
11665;SDS011;5889;51.350;6.708;2022-11-15T00:16:45;12.70;;;9.17;;
11665;SDS011;5889;51.350;6.708;2022-11-15T00:19:12;16.53;;;9.30;;
11665;SDS011;5889;51.350;6.708;2022-11-15T00:21:40;11.47;;;7.63;;
11665;SDS011;5889;51.350;6.708;2022-11-15T00:24:07;14.60;;;8.60;;
11665;SDS011;5889;51.350;6.708;2022-11-15T00:26:34;14.20;;;9.00;;
11665;SDS011;5889;51.350;6.708;2022-11-15T00:29:01;15.47;;;9.00;;
11665;SDS011;5889;51.350;6.708;2022-11-15T00:31:28;12.47;;;8.80;;
11665;SDS011;5889;51.350;6.708;2022-11-15T00:33:55;12.27;;;8.30;;
11665;SDS011;5889;51.350;6.708;2022-11-15T00:36:22;12.37;;;7.93;;
11665;SDS011;5889;51.350;6.708;2022-11-15T00:38:50;11.50;;;7.40;;
11665;SDS011;5889;51.350;6.708;2022-11-15T00:41:17;14.20;;;8.30;;
11665;SDS011;5889;51.350;6.708;2022-11-15T00:43:44;13.50;;;9.00;;
11665;SDS011;5889;51.350;6.708;2022-11-15T00:46:11;13.17;;;8.63;;
11665;SDS011;5889;51.350;6.708;2022-11-15T00:48:38;15.23;;;8.63;;
11665;SDS011;5889;51.350;6.708;2022-11-15T00:51:05;12.33;;;9.13;;
11665;SDS011;5889;51.350;6.708;2022-11-15T00:53:32;12.93;;;8.37;;
11665;SDS011;5889;51.350;6.708;2022-11-15T00:56:00;10.80;;;7.97;;
11665;SDS011;5889;51.350;6.708;2022-11-15T00:58:27;9.73;;;6.67;;
11665;SDS011;5889;51.350;6.708;2022-11-15T01:00:54;10.70;;;7.77;;
11665;SDS011;5889;51.350;6.708;2022-11-15T01:03:21;12.03;;;8.20;;
11665;SDS011;5889;51.350;6.708;2022-11-15T01:05:47;13.63;;;8.53;;
11665;SDS011;5889;51.350;6.708;2022-11-15T01:08:15;10.50;;;7.50;;
11665;SDS011;5889;51.350;6.708;2022-11-15T01:10:42;12.47;;;8.27;;
11665;SDS011;5889;51.350;6.708;2022-11-15T01:13:10;11.00;;;7.73;;
11665;SDS011;5889;51.350;6.708;2022-11-15T01:15:38;13.00;;;7.40;;
11665;SDS011;5889;51.350;6.708;2022-11-15T01:18:06;10.53;;;7.90;;
11665;SDS011;5889;51.350;6.708;2022-11-15T01:20:33;11.17;;;8.43;;
11665;SDS011;5889;51.350;6.708;2022-11-15T01:23:00;11.57;;;8.50;;
11665;SDS011;5889;51.350;6.708;2022-11-15T01:25:27;11.80;;;8.33;;
11665;SDS011;5889;51.350;6.708;2022-11-15T01:27:54;13.40;;;7.93;;
11665;SDS011;5889;51.350;6.708;2022-11-15T01:30:22;10.43;;;7.17;;
11665;SDS011;5889;51.350;6.708;2022-11-15T01:32:49;11.13;;;7.23;;
11665;SDS011;5889;51.350;6.708;2022-11-15T01:35:16;10.70;;;7.80;;
11665;SDS011;5889;51.350;6.708;2022-11-15T01:37:43;12.50;;;7.20;;
11665;SDS011;5889;51.350;6.708;2022-11-15T01:40:10;9.20;;;5.90;;
11665;SDS011;5889;51.350;6.708;2022-11-15T01:42:37;9.63;;;6.57;;
11665;SDS011;5889;51.350;6.708;2022-11-15T01:45:04;11.60;;;7.27;;
11665;SDS011;5889;51.350;6.708;2022-11-15T01:47:35;8.47;;;5.93;;
11665;SDS011;5889;51.350;6.708;2022-11-15T01:50:08;12.33;;;7.57;;
11665;SDS011;5889;51.350;6.708;2022-11-15T01:52:38;11.60;;;7.40;;
11665;SDS011;5889;51.350;6.708;2022-11-15T01:55:07;11.30;;;7.47;;
11665;SDS011;5889;51.350;6.708;2022-11-15T01:57:36;12.43;;;8.43;;
11665;SDS011;5889;51.350;6.708;2022-11-15T02:00:04;11.13;;;7.33;;
11665;SDS011;5889;51.350;6.708;2022-11-15T02:02:34;10.97;;;7.47;;
11665;SDS011;5889;51.350;6.708;2022-11-15T02:05:04;8.50;;;6.83;;
11665;SDS011;5889;51.350;6.708;2022-11-15T02:07:32;11.20;;;6.30;;
11665;SDS011;5889;51.350;6.708;2022-11-15T02:10:02;8.93;;;6.87;;
11665;SDS011;5889;51.350;6.708;2022-11-15T02:12:33;10.90;;;7.60;;
11665;SDS011;5889;51.350;6.708;2022-11-15T02:15:00;9.43;;;7.53;;
11665;SDS011;5889;51.350;6.708;2022-11-15T02:17:37;10.10;;;7.00;;
11665;SDS011;5889;51.350;6.708;2022-11-15T02:20:23;11.97;;;7.60;;
11665;SDS011;5889;51.350;6.708;2022-11-15T02:23:15;11.17;;;6.43;;
11665;SDS011;5889;51.350;6.708;2022-11-15T02:26:03;12.20;;;7.00;;
11665;SDS011;5889;51.350;6.708;2022-11-15T02:28:53;8.67;;;6.73;;
11665;SDS011;5889;51.350;6.708;2022-11-15T02:31:29;11.83;;;6.73;;
11665;SDS011;5889;51.350;6.708;2022-11-15T02:34:04;11.40;;;7.10;;
11665;SDS011;5889;51.350;6.708;2022-11-15T02:36:36;10.93;;;7.47;;
11665;SDS011;5889;51.350;6.708;2022-11-15T02:39:10;9.07;;;6.07;;
11665;SDS011;5889;51.350;6.708;2022-11-15T02:41:45;10.53;;;6.33;;
11665;SDS011;5889;51.350;6.708;2022-11-15T02:44:19;8.97;;;7.10;;
11665;SDS011;5889;51.350;6.708;2022-11-15T02:46:52;10.27;;;7.20;;
11665;SDS011;5889;51.350;6.708;2022-11-15T02:49:39;9.80;;;7.63;;
11665;SDS011;5889;51.350;6.708;2022-11-15T02:52:13;9.13;;;7.10;;
11665;SDS011;5889;51.350;6.708;2022-11-15T02:54:41;11.43;;;7.27;;
11665;SDS011;5889;51.350;6.708;2022-11-15T02:57:10;11.47;;;7.23;;
11665;SDS011;5889;51.350;6.708;2022-11-15T03:02:41;12.93;;;7.00;;
11665;SDS011;5889;51.350;6.708;2022-11-15T03:05:19;11.93;;;7.73;;
11665;SDS011;5889;51.350;6.708;2022-11-15T03:07:54;10.57;;;7.17;;
11665;SDS011;5889;51.350;6.708;2022-11-15T03:10:29;10.57;;;7.27;;
11665;SDS011;5889;51.350;6.708;2022-11-15T03:13:07;10.97;;;7.27;;
11665;SDS011;5889;51.350;6.708;2022-11-15T03:15:43;9.90;;;6.73;;
11665;SDS011;5889;51.350;6.708;2022-11-15T03:18:19;11.30;;;7.10;;
11665;SDS011;5889;51.350;6.708;2022-11-15T03:20:50;8.67;;;6.80;;
11665;SDS011;5889;51.350;6.708;2022-11-15T03:23:18;12.70;;;7.97;;
11665;SDS011;5889;51.350;6.708;2022-11-15T03:25:46;11.23;;;7.70;;
11665;SDS011;5889;51.350;6.708;2022-11-15T03:28:17;11.60;;;7.67;;
11665;SDS011;5889;51.350;6.708;2022-11-15T03:30:46;11.80;;;7.70;;
11665;SDS011;5889;51.350;6.708;2022-11-15T03:33:15;12.53;;;7.90;;
11665;SDS011;5889;51.350;6.708;2022-11-15T03:35:44;11.33;;;7.97;;
11665;SDS011;5889;51.350;6.708;2022-11-15T03:38:14;7.67;;;6.00;;
11665;SDS011;5889;51.350;6.708;2022-11-15T03:40:47;11.90;;;7.10;;
11665;SDS011;5889;51.350;6.708;2022-11-15T03:43:22;11.77;;;8.07;;
11665;SDS011;5889;51.350;6.708;2022-11-15T03:45:56;13.13;;;8.43;;
11665;SDS011;5889;51.350;6.708;2022-11-15T03:48:30;12.53;;;7.83;;
11665;SDS011;5889;51.350;6.708;2022-11-15T03:51:02;9.60;;;7.23;;
11665;SDS011;5889;51.350;6.708;2022-11-15T03:53:30;10.33;;;6.43;;
11665;SDS011;5889;51.350;6.708;2022-11-15T03:55:57;9.13;;;6.83;;
11665;SDS011;5889;51.350;6.708;2022-11-15T03:58:24;9.83;;;7.40;;
11665;SDS011;5889;51.350;6.708;2022-11-15T04:00:51;15.40;;;7.40;;
11665;SDS011;5889;51.350;6.708;2022-11-15T04:03:18;10.10;;;7.17;;
11665;SDS011;5889;51.350;6.708;2022-11-15T04:05:46;13.47;;;7.17;;
11665;SDS011;5889;51.350;6.708;2022-11-15T04:08:13;8.00;;;6.33;;
11665;SDS011;5889;51.350;6.708;2022-11-15T04:10:40;10.90;;;7.13;;
11665;SDS011;5889;51.350;6.708;2022-11-15T04:13:07;10.90;;;7.17;;
11665;SDS011;5889;51.350;6.708;2022-11-15T04:15:34;10.50;;;7.00;;
11665;SDS011;5889;51.350;6.708;2022-11-15T04:18:01;10.00;;;6.37;;
11665;SDS011;5889;51.350;6.708;2022-11-15T04:20:29;10.37;;;7.40;;
11665;SDS011;5889;51.350;6.708;2022-11-15T04:23:16;10.50;;;7.07;;
11665;SDS011;5889;51.350;6.708;2022-11-15T04:26:01;13.03;;;7.37;;
11665;SDS011;5889;51.350;6.708;2022-11-15T04:28:30;10.10;;;6.80;;
11665;SDS011;5889;51.350;6.708;2022-11-15T04:30:57;7.07;;;5.93;;
11665;SDS011;5889;51.350;6.708;2022-11-15T04:33:24;7.67;;;6.40;;
11665;SDS011;5889;51.350;6.708;2022-11-15T04:35:51;8.97;;;6.70;;
11665;SDS011;5889;51.350;6.708;2022-11-15T04:38:36;7.67;;;6.10;;
11665;SDS011;5889;51.350;6.708;2022-11-15T04:41:03;7.97;;;6.27;;
11665;SDS011;5889;51.350;6.708;2022-11-15T04:43:30;10.03;;;6.27;;
11665;SDS011;5889;51.350;6.708;2022-11-15T04:45:57;9.60;;;6.57;;
11665;SDS011;5889;51.350;6.708;2022-11-15T04:48:24;8.70;;;6.63;;
11665;SDS011;5889;51.350;6.708;2022-11-15T04:50:51;10.87;;;7.30;;
11665;SDS011;5889;51.350;6.708;2022-11-15T04:53:18;10.27;;;6.60;;
11665;SDS011;5889;51.350;6.708;2022-11-15T04:55:46;8.50;;;6.20;;
11665;SDS011;5889;51.350;6.708;2022-11-15T04:58:13;9.67;;;6.33;;
11665;SDS011;5889;51.350;6.708;2022-11-15T05:00:40;10.53;;;6.27;;
11665;SDS011;5889;51.350;6.708;2022-11-15T05:03:08;8.07;;;5.97;;
11665;SDS011;5889;51.350;6.708;2022-11-15T05:05:53;11.83;;;6.57;;
11665;SDS011;5889;51.350;6.708;2022-11-15T05:08:20;8.90;;;5.53;;
11665;SDS011;5889;51.350;6.708;2022-11-15T05:10:48;10.60;;;5.87;;
11665;SDS011;5889;51.350;6.708;2022-11-15T05:13:15;6.90;;;5.70;;
11665;SDS011;5889;51.350;6.708;2022-11-15T05:15:42;7.97;;;6.10;;
11665;SDS011;5889;51.350;6.708;2022-11-15T05:18:09;7.10;;;5.40;;
11665;SDS011;5889;51.350;6.708;2022-11-15T05:20:37;9.10;;;5.30;;
11665;SDS011;5889;51.350;6.708;2022-11-15T05:23:04;8.47;;;5.53;;
11665;SDS011;5889;51.350;6.708;2022-11-15T05:25:31;8.43;;;6.03;;
11665;SDS011;5889;51.350;6.708;2022-11-15T05:27:59;8.97;;;5.80;;
11665;SDS011;5889;51.350;6.708;2022-11-15T05:30:26;8.67;;;5.73;;
11665;SDS011;5889;51.350;6.708;2022-11-15T05:32:53;8.50;;;6.33;;
11665;SDS011;5889;51.350;6.708;2022-11-15T05:35:21;10.30;;;6.07;;
11665;SDS011;5889;51.350;6.708;2022-11-15T05:37:54;8.83;;;6.00;;
11665;SDS011;5889;51.350;6.708;2022-11-15T05:40:21;10.97;;;6.63;;
11665;SDS011;5889;51.350;6.708;2022-11-15T05:42:48;9.60;;;6.87;;
11665;SDS011;5889;51.350;6.708;2022-11-15T05:45:17;8.70;;;6.00;;
11665;SDS011;5889;51.350;6.708;2022-11-15T05:47:44;9.17;;;6.03;;
11665;SDS011;5889;51.350;6.708;2022-11-15T05:50:12;8.33;;;6.60;;
11665;SDS011;5889;51.350;6.708;2022-11-15T05:52:40;10.00;;;6.37;;
11665;SDS011;5889;51.350;6.708;2022-11-15T05:55:08;9.33;;;6.00;;
11665;SDS011;5889;51.350;6.708;2022-11-15T05:57:35;9.40;;;7.00;;
11665;SDS011;5889;51.350;6.708;2022-11-15T06:00:03;9.03;;;6.40;;
11665;SDS011;5889;51.350;6.708;2022-11-15T06:02:32;10.80;;;6.77;;
11665;SDS011;5889;51.350;6.708;2022-11-15T06:04:59;10.43;;;6.77;;
11665;SDS011;5889;51.350;6.708;2022-11-15T06:07:26;8.13;;;6.47;;
11665;SDS011;5889;51.350;6.708;2022-11-15T06:09:54;8.47;;;6.30;;
11665;SDS011;5889;51.350;6.708;2022-11-15T06:12:21;9.63;;;6.83;;
11665;SDS011;5889;51.350;6.708;2022-11-15T06:14:48;7.37;;;5.97;;
11665;SDS011;5889;51.350;6.708;2022-11-15T06:17:15;7.70;;;6.47;;
11665;SDS011;5889;51.350;6.708;2022-11-15T06:19:43;8.93;;;6.63;;
11665;SDS011;5889;51.350;6.708;2022-11-15T06:22:10;9.10;;;6.87;;
11665;SDS011;5889;51.350;6.708;2022-11-15T06:24:37;7.93;;;6.33;;
11665;SDS011;5889;51.350;6.708;2022-11-15T06:27:04;10.67;;;6.20;;
11665;SDS011;5889;51.350;6.708;2022-11-15T06:29:31;6.40;;;5.10;;
11665;SDS011;5889;51.350;6.708;2022-11-15T06:31:58;9.30;;;6.23;;
11665;SDS011;5889;51.350;6.708;2022-11-15T06:34:25;8.67;;;6.20;;
11665;SDS011;5889;51.350;6.708;2022-11-15T06:36:53;7.93;;;5.53;;
11665;SDS011;5889;51.350;6.708;2022-11-15T06:39:20;8.07;;;5.77;;
11665;SDS011;5889;51.350;6.708;2022-11-15T06:41:46;7.47;;;5.03;;
11665;SDS011;5889;51.350;6.708;2022-11-15T06:44:13;7.40;;;5.17;;
11665;SDS011;5889;51.350;6.708;2022-11-15T06:46:41;5.60;;;4.97;;
11665;SDS011;5889;51.350;6.708;2022-11-15T06:49:08;11.20;;;5.70;;
11665;SDS011;5889;51.350;6.708;2022-11-15T06:51:35;8.67;;;5.33;;
11665;SDS011;5889;51.350;6.708;2022-11-15T06:54:03;7.13;;;5.47;;
11665;SDS011;5889;51.350;6.708;2022-11-15T06:56:30;7.80;;;5.20;;
11665;SDS011;5889;51.350;6.708;2022-11-15T06:58:57;7.00;;;5.17;;
11665;SDS011;5889;51.350;6.708;2022-11-15T07:01:24;8.33;;;5.07;;
11665;SDS011;5889;51.350;6.708;2022-11-15T07:03:51;5.73;;;4.43;;
11665;SDS011;5889;51.350;6.708;2022-11-15T07:06:18;6.63;;;4.83;;
11665;SDS011;5889;51.350;6.708;2022-11-15T07:08:45;7.03;;;4.50;;
11665;SDS011;5889;51.350;6.708;2022-11-15T07:11:13;6.90;;;4.83;;
11665;SDS011;5889;51.350;6.708;2022-11-15T07:13:40;6.97;;;4.53;;
11665;SDS011;5889;51.350;6.708;2022-11-15T07:16:08;5.10;;;3.43;;
11665;SDS011;5889;51.350;6.708;2022-11-15T07:18:36;6.23;;;4.33;;
11665;SDS011;5889;51.350;6.708;2022-11-15T07:21:04;6.23;;;4.37;;
11665;SDS011;5889;51.350;6.708;2022-11-15T07:23:33;7.97;;;4.23;;
11665;SDS011;5889;51.350;6.708;2022-11-15T07:26:02;4.57;;;3.53;;
11665;SDS011;5889;51.350;6.708;2022-11-15T07:28:30;4.40;;;3.53;;
11665;SDS011;5889;51.350;6.708;2022-11-15T07:30:57;6.53;;;4.47;;
11665;SDS011;5889;51.350;6.708;2022-11-15T07:33:27;4.10;;;3.70;;
11665;SDS011;5889;51.350;6.708;2022-11-15T07:35:57;5.63;;;3.77;;
11665;SDS011;5889;51.350;6.708;2022-11-15T07:38:26;4.13;;;3.33;;
11665;SDS011;5889;51.350;6.708;2022-11-15T07:40:55;3.80;;;3.27;;
11665;SDS011;5889;51.350;6.708;2022-11-15T07:43:23;4.80;;;2.80;;
11665;SDS011;5889;51.350;6.708;2022-11-15T07:45:54;6.43;;;2.77;;
11665;SDS011;5889;51.350;6.708;2022-11-15T07:48:21;9.37;;;2.80;;
11665;SDS011;5889;51.350;6.708;2022-11-15T07:50:48;2.13;;;1.50;;
11665;SDS011;5889;51.350;6.708;2022-11-15T07:53:15;6.40;;;1.53;;
11665;SDS011;5889;51.350;6.708;2022-11-15T07:55:41;6.20;;;1.00;;
11665;SDS011;5889;51.350;6.708;2022-11-15T07:58:09;1.67;;;1.00;;
11665;SDS011;5889;51.350;6.708;2022-11-15T08:00:37;4.43;;;1.20;;
11665;SDS011;5889;51.350;6.708;2022-11-15T08:03:06;3.20;;;0.97;;
11665;SDS011;5889;51.350;6.708;2022-11-15T08:05:35;2.60;;;1.00;;
11665;SDS011;5889;51.350;6.708;2022-11-15T08:08:03;1.40;;;0.90;;
11665;SDS011;5889;51.350;6.708;2022-11-15T08:10:30;2.60;;;1.00;;
11665;SDS011;5889;51.350;6.708;2022-11-15T08:12:58;1.07;;;0.90;;
11665;SDS011;5889;51.350;6.708;2022-11-15T08:15:26;1.23;;;0.83;;
11665;SDS011;5889;51.350;6.708;2022-11-15T08:17:54;2.13;;;0.77;;
11665;SDS011;5889;51.350;6.708;2022-11-15T08:20:22;2.10;;;1.00;;
11665;SDS011;5889;51.350;6.708;2022-11-15T08:22:49;5.00;;;1.30;;
11665;SDS011;5889;51.350;6.708;2022-11-15T08:25:16;1.43;;;1.00;;
11665;SDS011;5889;51.350;6.708;2022-11-15T08:27:43;1.30;;;0.80;;
11665;SDS011;5889;51.350;6.708;2022-11-15T08:30:11;1.23;;;0.80;;
11665;SDS011;5889;51.350;6.708;2022-11-15T08:32:38;1.93;;;1.10;;
11665;SDS011;5889;51.350;6.708;2022-11-15T08:35:06;0.83;;;0.83;;
11665;SDS011;5889;51.350;6.708;2022-11-15T08:37:35;1.83;;;1.00;;
11665;SDS011;5889;51.350;6.708;2022-11-15T08:40:02;1.63;;;0.90;;
11665;SDS011;5889;51.350;6.708;2022-11-15T08:42:30;2.23;;;1.00;;
11665;SDS011;5889;51.350;6.708;2022-11-15T08:44:56;1.50;;;0.90;;
11665;SDS011;5889;51.350;6.708;2022-11-15T08:47:23;2.90;;;1.10;;
11665;SDS011;5889;51.350;6.708;2022-11-15T08:49:51;1.73;;;1.27;;
11665;SDS011;5889;51.350;6.708;2022-11-15T08:52:18;5.43;;;1.63;;
11665;SDS011;5889;51.350;6.708;2022-11-15T08:54:47;2.90;;;1.37;;
11665;SDS011;5889;51.350;6.708;2022-11-15T08:57:13;4.20;;;1.80;;
11665;SDS011;5889;51.350;6.708;2022-11-15T08:59:40;4.10;;;1.83;;
11665;SDS011;5889;51.350;6.708;2022-11-15T09:02:10;3.43;;;1.80;;
11665;SDS011;5889;51.350;6.708;2022-11-15T09:04:39;3.43;;;2.20;;
11665;SDS011;5889;51.350;6.708;2022-11-15T09:07:07;3.90;;;2.30;;
11665;SDS011;5889;51.350;6.708;2022-11-15T09:09:34;3.43;;;2.23;;
11665;SDS011;5889;51.350;6.708;2022-11-15T09:12:03;3.10;;;2.27;;
11665;SDS011;5889;51.350;6.708;2022-11-15T09:14:31;3.83;;;2.50;;
11665;SDS011;5889;51.350;6.708;2022-11-15T09:16:58;3.67;;;2.50;;
11665;SDS011;5889;51.350;6.708;2022-11-15T09:19:26;7.43;;;3.20;;
11665;SDS011;5889;51.350;6.708;2022-11-15T09:21:53;5.60;;;3.20;;
11665;SDS011;5889;51.350;6.708;2022-11-15T09:24:20;5.60;;;2.83;;
11665;SDS011;5889;51.350;6.708;2022-11-15T09:26:49;3.37;;;2.40;;
11665;SDS011;5889;51.350;6.708;2022-11-15T09:29:18;5.40;;;2.90;;
11665;SDS011;5889;51.350;6.708;2022-11-15T09:31:44;5.50;;;2.77;;
11665;SDS011;5889;51.350;6.708;2022-11-15T09:34:11;5.03;;;3.10;;
11665;SDS011;5889;51.350;6.708;2022-11-15T09:36:38;2.83;;;2.30;;
11665;SDS011;5889;51.350;6.708;2022-11-15T09:39:05;4.37;;;2.97;;
11665;SDS011;5889;51.350;6.708;2022-11-15T09:41:39;4.30;;;2.80;;
11665;SDS011;5889;51.350;6.708;2022-11-15T09:44:24;2.80;;;2.07;;
11665;SDS011;5889;51.350;6.708;2022-11-15T09:47:03;3.33;;;2.00;;
11665;SDS011;5889;51.350;6.708;2022-11-15T09:49:42;4.53;;;1.83;;
11665;SDS011;5889;51.350;6.708;2022-11-15T09:52:10;1.90;;;1.50;;
11665;SDS011;5889;51.350;6.708;2022-11-15T09:54:38;4.67;;;1.90;;
11665;SDS011;5889;51.350;6.708;2022-11-15T09:57:09;3.60;;;1.63;;
11665;SDS011;5889;51.350;6.708;2022-11-15T09:59:49;4.37;;;1.70;;
11665;SDS011;5889;51.350;6.708;2022-11-15T10:05:14;5.27;;;1.80;;
11665;SDS011;5889;51.350;6.708;2022-11-15T10:07:50;4.57;;;2.30;;
11665;SDS011;5889;51.350;6.708;2022-11-15T10:10:25;2.20;;;1.60;;
11665;SDS011;5889;51.350;6.708;2022-11-15T10:12:57;2.60;;;1.70;;
11665;SDS011;5889;51.350;6.708;2022-11-15T10:15:26;2.33;;;1.80;;
11665;SDS011;5889;51.350;6.708;2022-11-15T10:18:01;3.60;;;1.90;;
11665;SDS011;5889;51.350;6.708;2022-11-15T10:20:39;6.40;;;1.60;;
11665;SDS011;5889;51.350;6.708;2022-11-15T10:23:13;3.30;;;1.90;;
11665;SDS011;5889;51.350;6.708;2022-11-15T10:25:42;4.10;;;1.70;;
11665;SDS011;5889;51.350;6.708;2022-11-15T10:28:11;4.67;;;1.53;;
11665;SDS011;5889;51.350;6.708;2022-11-15T10:30:43;1.87;;;1.17;;
11665;SDS011;5889;51.350;6.708;2022-11-15T10:33:13;3.20;;;1.20;;
11665;SDS011;5889;51.350;6.708;2022-11-15T10:41:30;1.63;;;1.30;;
11665;SDS011;5889;51.350;6.708;2022-11-15T10:44:08;1.90;;;1.10;;
11665;SDS011;5889;51.350;6.708;2022-11-15T10:46:48;3.33;;;1.23;;
11665;SDS011;5889;51.350;6.708;2022-11-15T10:49:32;3.23;;;1.20;;
11665;SDS011;5889;51.350;6.708;2022-11-15T10:52:01;2.53;;;1.40;;
11665;SDS011;5889;51.350;6.708;2022-11-15T10:54:39;2.27;;;1.27;;
11665;SDS011;5889;51.350;6.708;2022-11-15T10:57:12;3.00;;;1.20;;
11665;SDS011;5889;51.350;6.708;2022-11-15T10:59:42;2.23;;;1.33;;
11665;SDS011;5889;51.350;6.708;2022-11-15T11:02:26;3.40;;;1.30;;
11665;SDS011;5889;51.350;6.708;2022-11-15T11:04:56;2.00;;;1.30;;
11665;SDS011;5889;51.350;6.708;2022-11-15T11:07:24;3.07;;;1.37;;
11665;SDS011;5889;51.350;6.708;2022-11-15T11:09:59;2.73;;;1.37;;
11665;SDS011;5889;51.350;6.708;2022-11-15T11:12:28;1.93;;;1.40;;
11665;SDS011;5889;51.350;6.708;2022-11-15T11:14:57;8.13;;;1.53;;
11665;SDS011;5889;51.350;6.708;2022-11-15T11:17:30;3.90;;;1.30;;
11665;SDS011;5889;51.350;6.708;2022-11-15T11:20:06;2.40;;;1.30;;
11665;SDS011;5889;51.350;6.708;2022-11-15T11:22:42;3.50;;;1.10;;
11665;SDS011;5889;51.350;6.708;2022-11-15T11:25:23;3.53;;;1.23;;
11665;SDS011;5889;51.350;6.708;2022-11-15T11:27:59;3.10;;;1.07;;
11665;SDS011;5889;51.350;6.708;2022-11-15T11:30:42;2.97;;;1.30;;
11665;SDS011;5889;51.350;6.708;2022-11-15T11:33:18;2.47;;;1.33;;
11665;SDS011;5889;51.350;6.708;2022-11-15T11:35:56;2.27;;;1.10;;
11665;SDS011;5889;51.350;6.708;2022-11-15T11:38:34;4.07;;;1.03;;
11665;SDS011;5889;51.350;6.708;2022-11-15T11:41:12;2.40;;;0.97;;
11665;SDS011;5889;51.350;6.708;2022-11-15T11:43:48;1.83;;;1.27;;
11665;SDS011;5889;51.350;6.708;2022-11-15T11:46:25;3.83;;;1.20;;
11665;SDS011;5889;51.350;6.708;2022-11-15T11:49:02;5.97;;;0.93;;
11665;SDS011;5889;51.350;6.708;2022-11-15T11:51:36;3.00;;;1.17;;
11665;SDS011;5889;51.350;6.708;2022-11-15T11:54:10;3.00;;;1.10;;
11665;SDS011;5889;51.350;6.708;2022-11-15T11:56:41;2.33;;;0.97;;
11665;SDS011;5889;51.350;6.708;2022-11-15T11:59:12;4.60;;;1.40;;
11665;SDS011;5889;51.350;6.708;2022-11-15T12:01:45;1.03;;;0.90;;
11665;SDS011;5889;51.350;6.708;2022-11-15T12:04:16;2.93;;;1.10;;
11665;SDS011;5889;51.350;6.708;2022-11-15T12:06:47;3.80;;;1.30;;
11665;SDS011;5889;51.350;6.708;2022-11-15T12:09:20;1.93;;;1.40;;
11665;SDS011;5889;51.350;6.708;2022-11-15T12:11:55;1.20;;;0.70;;
11665;SDS011;5889;51.350;6.708;2022-11-15T12:14:29;1.57;;;0.90;;
11665;SDS011;5889;51.350;6.708;2022-11-15T12:16:59;2.97;;;0.80;;
11665;SDS011;5889;51.350;6.708;2022-11-15T12:19:28;5.87;;;1.30;;
11665;SDS011;5889;51.350;6.708;2022-11-15T12:21:58;2.67;;;0.70;;
11665;SDS011;5889;51.350;6.708;2022-11-15T12:24:31;4.13;;;0.80;;
11665;SDS011;5889;51.350;6.708;2022-11-15T12:27:03;1.80;;;1.00;;
11665;SDS011;5889;51.350;6.708;2022-11-15T12:29:36;3.07;;;1.00;;
11665;SDS011;5889;51.350;6.708;2022-11-15T12:32:05;2.07;;;0.90;;
11665;SDS011;5889;51.350;6.708;2022-11-15T12:34:46;2.70;;;1.30;;
11665;SDS011;5889;51.350;6.708;2022-11-15T12:40:26;2.80;;;0.80;;
11665;SDS011;5889;51.350;6.708;2022-11-15T12:42:59;4.27;;;0.70;;
11665;SDS011;5889;51.350;6.708;2022-11-15T12:45:29;1.13;;;0.70;;
11665;SDS011;5889;51.350;6.708;2022-11-15T12:48:44;2.70;;;0.80;;
11665;SDS011;5889;51.350;6.708;2022-11-15T12:51:15;0.97;;;0.80;;
11665;SDS011;5889;51.350;6.708;2022-11-15T12:53:42;3.33;;;1.23;;
11665;SDS011;5889;51.350;6.708;2022-11-15T12:56:16;1.00;;;0.87;;
11665;SDS011;5889;51.350;6.708;2022-11-15T12:58:49;2.47;;;0.90;;
11665;SDS011;5889;51.350;6.708;2022-11-15T13:04:34;1.30;;;0.90;;
11665;SDS011;5889;51.350;6.708;2022-11-15T13:07:03;3.23;;;1.10;;
11665;SDS011;5889;51.350;6.708;2022-11-15T13:15:31;2.97;;;0.80;;
11665;SDS011;5889;51.350;6.708;2022-11-15T13:21:01;5.17;;;1.10;;
11665;SDS011;5889;51.350;6.708;2022-11-15T13:23:54;4.60;;;0.90;;
11665;SDS011;5889;51.350;6.708;2022-11-15T13:26:22;2.60;;;1.00;;
11665;SDS011;5889;51.350;6.708;2022-11-15T13:28:49;2.23;;;0.80;;
11665;SDS011;5889;51.350;6.708;2022-11-15T13:31:24;4.50;;;1.07;;
11665;SDS011;5889;51.350;6.708;2022-11-15T13:33:53;5.30;;;0.80;;
11665;SDS011;5889;51.350;6.708;2022-11-15T13:36:23;3.57;;;1.00;;
11665;SDS011;5889;51.350;6.708;2022-11-15T13:38:58;2.73;;;1.13;;
11665;SDS011;5889;51.350;6.708;2022-11-15T13:41:27;4.03;;;1.10;;
11665;SDS011;5889;51.350;6.708;2022-11-15T13:43:55;2.27;;;1.00;;
11665;SDS011;5889;51.350;6.708;2022-11-15T13:46:24;3.53;;;1.10;;
11665;SDS011;5889;51.350;6.708;2022-11-15T13:48:53;2.10;;;0.93;;
11665;SDS011;5889;51.350;6.708;2022-11-15T13:51:23;3.50;;;1.50;;
11665;SDS011;5889;51.350;6.708;2022-11-15T13:53:55;5.47;;;1.00;;
11665;SDS011;5889;51.350;6.708;2022-11-15T13:56:28;2.50;;;1.00;;
11665;SDS011;5889;51.350;6.708;2022-11-15T13:58:56;2.47;;;1.13;;
11665;SDS011;5889;51.350;6.708;2022-11-15T14:01:23;3.60;;;0.90;;
11665;SDS011;5889;51.350;6.708;2022-11-15T14:03:56;2.37;;;1.00;;
11665;SDS011;5889;51.350;6.708;2022-11-15T14:06:25;3.63;;;1.00;;
11665;SDS011;5889;51.350;6.708;2022-11-15T14:09:00;5.07;;;0.90;;
11665;SDS011;5889;51.350;6.708;2022-11-15T14:11:51;2.83;;;0.90;;
11665;SDS011;5889;51.350;6.708;2022-11-15T14:14:19;4.03;;;1.10;;
11665;SDS011;5889;51.350;6.708;2022-11-15T14:16:48;4.17;;;1.20;;
11665;SDS011;5889;51.350;6.708;2022-11-15T14:19:33;2.40;;;1.20;;
11665;SDS011;5889;51.350;6.708;2022-11-15T14:22:08;4.13;;;1.50;;
11665;SDS011;5889;51.350;6.708;2022-11-15T14:24:42;3.73;;;1.30;;
11665;SDS011;5889;51.350;6.708;2022-11-15T14:27:20;2.73;;;1.50;;
11665;SDS011;5889;51.350;6.708;2022-11-15T14:29:51;4.17;;;1.03;;
11665;SDS011;5889;51.350;6.708;2022-11-15T14:32:18;5.13;;;0.97;;
11665;SDS011;5889;51.350;6.708;2022-11-15T14:34:47;4.70;;;1.27;;
11665;SDS011;5889;51.350;6.708;2022-11-15T14:37:18;2.53;;;0.90;;
11665;SDS011;5889;51.350;6.708;2022-11-15T14:39:49;4.53;;;1.40;;
11665;SDS011;5889;51.350;6.708;2022-11-15T14:42:17;4.10;;;1.37;;
11665;SDS011;5889;51.350;6.708;2022-11-15T14:44:44;4.77;;;1.37;;
11665;SDS011;5889;51.350;6.708;2022-11-15T14:47:12;3.00;;;1.30;;
11665;SDS011;5889;51.350;6.708;2022-11-15T14:49:39;3.27;;;1.20;;
11665;SDS011;5889;51.350;6.708;2022-11-15T14:52:18;2.67;;;1.13;;
11665;SDS011;5889;51.350;6.708;2022-11-15T14:54:55;2.40;;;1.30;;
11665;SDS011;5889;51.350;6.708;2022-11-15T14:57:23;4.57;;;1.50;;
11665;SDS011;5889;51.350;6.708;2022-11-15T14:59:50;3.93;;;1.57;;
11665;SDS011;5889;51.350;6.708;2022-11-15T15:02:18;3.83;;;1.90;;
11665;SDS011;5889;51.350;6.708;2022-11-15T15:04:47;3.07;;;1.53;;
11665;SDS011;5889;51.350;6.708;2022-11-15T15:07:14;5.50;;;1.73;;
11665;SDS011;5889;51.350;6.708;2022-11-15T15:09:42;5.70;;;1.90;;
11665;SDS011;5889;51.350;6.708;2022-11-15T15:12:13;7.50;;;2.17;;
11665;SDS011;5889;51.350;6.708;2022-11-15T15:14:42;3.77;;;1.80;;
11665;SDS011;5889;51.350;6.708;2022-11-15T15:17:09;5.00;;;2.00;;
11665;SDS011;5889;51.350;6.708;2022-11-15T15:19:36;3.83;;;2.00;;
11665;SDS011;5889;51.350;6.708;2022-11-15T15:22:03;4.47;;;1.90;;
11665;SDS011;5889;51.350;6.708;2022-11-15T15:24:30;4.23;;;1.93;;
11665;SDS011;5889;51.350;6.708;2022-11-15T15:26:57;6.93;;;3.00;;
11665;SDS011;5889;51.350;6.708;2022-11-15T15:29:26;6.07;;;2.57;;
11665;SDS011;5889;51.350;6.708;2022-11-15T15:31:53;4.27;;;3.00;;
11665;SDS011;5889;51.350;6.708;2022-11-15T15:34:20;7.70;;;2.80;;
11665;SDS011;5889;51.350;6.708;2022-11-15T15:36:46;3.13;;;2.00;;
11665;SDS011;5889;51.350;6.708;2022-11-15T15:39:14;2.40;;;1.90;;
11665;SDS011;5889;51.350;6.708;2022-11-15T15:41:41;3.73;;;2.33;;
11665;SDS011;5889;51.350;6.708;2022-11-15T15:44:08;6.43;;;2.40;;